aviador You're here:

SPTN Decoded Metar

TACNA in PERU
Report Time2018-07-22 14:00:00
UTC Time2018-07-22 14:15:11
Flight Rules ifr IFR
Wind250° at 03 kt
W.Decomp.*RWY 20: 1.8 kt HW 2.4 kt RCW
W.Rank250° ranks 7
Current wind is below 250° avg. (4.1)
Visibility3000 m
Phenomena:Mist
Clouds:Scattered 007 Hf
Overcast 012 Hf
Ceiling1,200 ft
Temp14°C (ISA +2)
Dew Point14°C (100% RH)
QNH1018 hPa
Density Alt1,788 ft
Elevation1,503 ft
Report Wrong Elevation
Raw Report
SPTN 221400Z 25003KT 3000 BR SCT007 OVC012 14/14 Q1018 RMK
DZB10E40 PPTRZ=

Extra information for SPTN:More info

Metar Taf Metar & Taf Last 4 Metars F.Rules Stats Wind Profile Meteogram Temp Stats Airport Information Weather charts Add Link Nearby VenuesMetar ALERT Operation Metar Decoded Social comments